Time;durP1;ratioP1;P1;durP2;ratioP2;P2;SDS_P1;SDS_P2;PMS_P1;PMS_P2;Temp;Humidity;BMP_temperature;BMP_pressure;BME280_temperature;BME280_humidity;BME280_pressure;Samples;Min_cycle;Max_cycle;Signal;HPM_P1;HPM_P2
2022/10/31 00:01:36;;;;;;;23.95;18.02;;;12.80;99.90;;;;;;5042175;28;20040;-30
2022/10/31 00:04:03;;;;;;;27.38;18.13;;;12.80;99.90;;;;;;5045615;28;20047;-30
2022/10/31 00:06:29;;;;;;;26.13;17.70;;;12.80;99.90;;;;;;5042436;28;20048;-30
2022/10/31 00:08:58;;;;;;;24.88;17.15;;;12.80;99.90;;;;;;5049800;28;20033;-30
2022/10/31 00:11:24;;;;;;;23.58;17.08;;;12.70;99.90;;;;;;5038289;28;20047;-30
2022/10/31 00:13:50;;;;;;;27.42;17.10;;;12.70;99.90;;;;;;5045930;28;20041;-30
2022/10/31 00:16:18;;;;;;;25.35;17.77;;;12.70;99.90;;;;;;5044745;28;20049;-30
2022/10/31 00:18:47;;;;;;;26.88;16.98;;;12.60;99.90;;;;;;5054219;28;20041;-30
2022/10/31 00:21:14;;;;;;;29.73;17.77;;;12.60;99.90;;;;;;5050461;28;20041;-30
2022/10/31 00:23:40;;;;;;;21.15;15.98;;;12.60;99.90;;;;;;5049465;28;20448;-30
2022/10/31 00:26:06;;;;;;;24.73;16.33;;;12.60;99.90;;;;;;5050733;28;20040;-30
2022/10/31 00:28:32;;;;;;;25.15;16.38;;;12.60;99.90;;;;;;5041840;28;20037;-30
2022/10/31 00:31:04;;;;;;;24.10;15.85;;;12.60;99.90;;;;;;5040067;28;20271;-30
2022/10/31 00:33:29;;;;;;;23.30;15.98;;;12.50;99.90;;;;;;5033930;28;20045;-30
2022/10/31 00:35:55;;;;;;;27.85;17.55;;;12.50;99.90;;;;;;5044348;28;20136;-30
2022/10/31 00:38:22;;;;;;;25.35;16.85;;;12.50;99.90;;;;;;5042048;28;20037;-30
2022/10/31 00:40:47;;;;;;;28.58;17.08;;;12.50;99.90;;;;;;5042489;28;20490;-30
2022/10/31 00:43:13;;;;;;;23.95;15.82;;;12.40;99.90;;;;;;5043680;28;20033;-30
2022/10/31 00:45:39;;;;;;;24.35;15.93;;;12.40;99.90;;;;;;5042311;28;20037;-30
2022/10/31 00:48:05;;;;;;;24.58;15.70;;;12.40;99.90;;;;;;5050143;28;20040;-30
2022/10/31 00:50:30;;;;;;;23.00;16.10;;;12.30;99.90;;;;;;5056739;28;20533;-30
2022/10/31 00:52:57;;;;;;;22.70;15.38;;;12.20;99.90;;;;;;5043056;28;20091;-30
2022/10/31 00:55:24;;;;;;;23.55;17.35;;;12.20;99.90;;;;;;5056307;28;20585;-30
2022/10/31 00:57:50;;;;;;;20.98;15.95;;;12.20;99.90;;;;;;5053196;28;20036;-30
2022/10/31 01:00:16;;;;;;;21.80;16.52;;;12.00;99.90;;;;;;5049459;28;20090;-30
2022/10/31 01:02:42;;;;;;;19.38;16.55;;;12.00;99.90;;;;;;5069001;28;20098;-30
2022/10/31 01:05:07;;;;;;;25.67;16.77;;;12.00;99.90;;;;;;5046107;28;20044;-30
2022/10/31 01:07:37;;;;;;;27.40;18.55;;;12.00;99.90;;;;;;5047450;28;20051;-30
2022/10/31 01:10:04;;;;;;;26.23;18.38;;;12.00;99.90;;;;;;5043032;28;20557;-30
2022/10/31 01:12:39;;;;;;;34.05;21.45;;;11.90;99.90;;;;;;5041069;28;20037;-30
2022/10/31 01:15:06;;;;;;;24.35;19.30;;;11.90;99.90;;;;;;5042079;28;20043;-30
2022/10/31 01:17:31;;;;;;;32.20;22.23;;;11.90;99.90;;;;;;5048147;28;20409;-30
2022/10/31 01:19:57;;;;;;;29.77;20.17;;;11.90;99.90;;;;;;5039998;28;20028;-30
2022/10/31 01:22:23;;;;;;;34.63;24.58;;;11.90;99.90;;;;;;5044239;28;20040;-30
2022/10/31 01:24:49;;;;;;;32.78;24.35;;;11.90;99.90;;;;;;5049428;28;20562;-30
2022/10/31 01:27:14;;;;;;;30.13;21.63;;;11.90;99.90;;;;;;5047504;28;20070;-30
2022/10/31 01:29:40;;;;;;;27.00;20.30;;;11.90;99.90;;;;;;5037603;28;20149;-30
2022/10/31 01:32:06;;;;;;;28.80;20.58;;;11.90;99.90;;;;;;5031104;28;20032;-30
2022/10/31 01:34:31;;;;;;;31.45;20.70;;;11.90;99.90;;;;;;5044525;28;20536;-30
2022/10/31 01:36:57;;;;;;;28.80;20.13;;;11.90;99.90;;;;;;5044426;28;20049;-30
2022/10/31 01:39:23;;;;;;;28.77;19.92;;;11.90;99.90;;;;;;5050412;28;20388;-30
2022/10/31 01:41:53;;;;;;;30.65;20.65;;;11.90;99.90;;;;;;5050057;28;20041;-30
2022/10/31 01:44:18;;;;;;;28.13;18.83;;;12.00;99.90;;;;;;5044957;28;20049;-30
2022/10/31 01:47:15;;;;;;;22.70;17.85;;;12.00;99.90;;;;;;5053735;28;20033;-30
2022/10/31 01:49:46;;;;;;;24.98;17.13;;;12.00;99.90;;;;;;5048376;28;20106;-30
2022/10/31 01:52:17;;;;;;;20.80;15.20;;;12.00;99.90;;;;;;5046623;28;20039;-30
2022/10/31 01:54:50;;;;;;;21.10;16.63;;;11.90;99.90;;;;;;5045143;28;20037;-30
2022/10/31 01:57:18;;;;;;;23.05;17.00;;;11.90;99.90;;;;;;5044832;28;20128;-30
2022/10/31 01:59:48;;;;;;;21.70;16.00;;;11.90;99.90;;;;;;5052431;28;20039;-30
2022/10/31 02:02:16;;;;;;;25.92;17.35;;;11.80;99.90;;;;;;5053721;28;20040;-31
2022/10/31 02:04:42;;;;;;;24.90;16.65;;;11.80;99.90;;;;;;5052741;28;20032;-31
2022/10/31 02:07:16;;;;;;;20.88;16.08;;;11.80;99.90;;;;;;5048464;28;20493;-30
2022/10/31 02:09:43;;;;;;;21.20;15.40;;;11.80;99.90;;;;;;5052061;28;20037;-30
2022/10/31 02:12:10;;;;;;;22.55;15.30;;;11.70;99.90;;;;;;5041070;28;20033;-31
2022/10/31 02:14:37;;;;;;;18.25;15.20;;;11.70;99.90;;;;;;5039749;28;20040;-30
2022/10/31 02:17:03;;;;;;;25.92;15.27;;;11.70;99.90;;;;;;5037567;28;20033;-30
2022/10/31 02:19:34;;;;;;;23.20;16.25;;;11.60;99.90;;;;;;5029977;28;20110;-30
2022/10/31 02:22:15;;;;;;;24.05;15.70;;;11.60;99.90;;;;;;5059813;28;20041;-30
2022/10/31 02:25:05;;;;;;;17.17;14.18;;;11.60;99.90;;;;;;5045927;28;20198;-30
2022/10/31 02:28:00;;;;;;;20.02;14.90;;;11.50;99.90;;;;;;5040054;28;20037;-30
2022/10/31 02:30:56;;;;;;;19.88;14.95;;;11.50;99.90;;;;;;5001385;28;20133;-30
2022/10/31 02:33:37;;;;;;;18.85;14.50;;;11.50;99.90;;;;;;5034834;28;20051;-30
2022/10/31 02:36:23;;;;;;;22.52;15.80;;;11.40;99.90;;;;;;5049274;28;20152;-30
2022/10/31 02:39:10;;;;;;;22.00;14.82;;;11.30;99.90;;;;;;5044849;28;20032;-30
2022/10/31 02:41:57;;;;;;;18.40;14.27;;;11.30;99.90;;;;;;5048580;28;20090;-30
2022/10/31 02:44:42;;;;;;;22.50;15.65;;;11.30;99.90;;;;;;5020038;28;20106;-30
2022/10/31 02:47:23;;;;;;;22.58;15.90;;;11.20;99.90;;;;;;5050155;28;20131;-30
2022/10/31 02:50:11;;;;;;;20.95;14.05;;;11.20;99.90;;;;;;5039808;28;20394;-30
2022/10/31 02:52:37;;;;;;;20.35;14.85;;;11.20;99.90;;;;;;5049791;28;20041;-30
2022/10/31 02:55:34;;;;;;;25.45;15.88;;;11.20;99.90;;;;;;5044038;28;20370;-30
2022/10/31 02:58:06;;;;;;;15.68;13.50;;;11.10;99.90;;;;;;5000618;28;20045;-30
2022/10/31 03:00:42;;;;;;;20.17;14.60;;;11.10;99.90;;;;;;5044557;28;20120;-30
2022/10/31 03:03:24;;;;;;;18.83;14.75;;;11.10;99.90;;;;;;5052197;28;20532;-30
2022/10/31 03:06:16;;;;;;;20.05;15.68;;;11.00;99.90;;;;;;5034873;28;20494;-27
2022/10/31 03:08:55;;;;;;;20.13;14.90;;;11.00;99.90;;;;;;5034381;28;20191;-27
2022/10/31 03:11:26;;;;;;;23.27;16.65;;;11.00;99.90;;;;;;5035152;28;20041;-26
2022/10/31 03:14:28;;;;;;;23.45;16.20;;;11.00;99.90;;;;;;5041513;28;20115;-27
2022/10/31 03:16:58;;;;;;;20.63;14.00;;;11.00;99.90;;;;;;5044644;28;20059;-27
2022/10/31 03:19:31;;;;;;;17.30;13.77;;;10.90;99.90;;;;;;5054946;28;20037;-27
2022/10/31 03:22:19;;;;;;;20.20;14.57;;;10.80;99.90;;;;;;5037842;28;20037;-26
2022/10/31 03:24:48;;;;;;;18.65;14.60;;;10.80;99.90;;;;;;5018134;28;20041;-26
2022/10/31 03:27:18;;;;;;;22.95;15.60;;;10.70;99.90;;;;;;5035006;28;20037;-26
2022/10/31 03:29:45;;;;;;;18.73;14.75;;;10.70;99.90;;;;;;5034607;28;20482;-26
2022/10/31 03:32:13;;;;;;;17.13;13.73;;;10.70;99.90;;;;;;5018231;28;20040;-27
2022/10/31 03:34:41;;;;;;;18.23;13.50;;;10.60;99.90;;;;;;5034379;28;20095;-27
2022/10/31 03:37:10;;;;;;;20.15;15.38;;;10.60;99.90;;;;;;5034283;28;20041;-26
2022/10/31 03:39:38;;;;;;;21.77;15.05;;;10.50;99.90;;;;;;5034680;28;20103;-27
2022/10/31 03:42:17;;;;;;;18.15;13.80;;;10.50;99.90;;;;;;5034208;28;20037;-26
2022/10/31 03:44:49;;;;;;;18.75;14.93;;;10.40;99.90;;;;;;5034013;28;20045;-27
2022/10/31 03:47:15;;;;;;;16.50;13.52;;;10.30;99.90;;;;;;5048780;28;20067;-26
2022/10/31 03:49:41;;;;;;;18.20;14.38;;;10.30;99.90;;;;;;5060920;28;20279;-26
2022/10/31 03:52:16;;;;;;;18.65;14.63;;;10.20;99.90;;;;;;5074016;28;20402;-27
2022/10/31 03:54:44;;;;;;;18.58;14.70;;;10.20;99.90;;;;;;5074335;28;20047;-27
2022/10/31 03:57:19;;;;;;;22.92;15.77;;;10.20;99.90;;;;;;5061138;28;20036;-26
2022/10/31 03:59:55;;;;;;;25.05;18.10;;;10.10;99.90;;;;;;5054259;28;20041;-26
2022/10/31 04:02:26;;;;;;;20.70;16.45;;;10.10;99.90;;;;;;5041311;28;20043;-26
2022/10/31 04:04:52;;;;;;;23.52;16.50;;;10.10;99.90;;;;;;5053062;28;20062;-26
2022/10/31 04:07:20;;;;;;;22.23;16.30;;;10.00;99.90;;;;;;5043737;28;20441;-26
2022/10/31 04:09:47;;;;;;;16.77;14.00;;;10.00;99.90;;;;;;5033643;28;20037;-27
2022/10/31 04:12:15;;;;;;;16.98;13.57;;;9.90;99.90;;;;;;5050337;28;20067;-26
2022/10/31 04:14:44;;;;;;;20.35;14.95;;;9.90;99.90;;;;;;5036590;28;20124;-26
2022/10/31 04:17:15;;;;;;;20.52;16.10;;;9.80;99.90;;;;;;5073912;28;20051;-26
2022/10/31 04:19:41;;;;;;;25.48;17.15;;;9.80;99.90;;;;;;5057131;28;20127;-26
2022/10/31 04:22:07;;;;;;;18.08;14.98;;;9.80;99.90;;;;;;5069319;28;20093;-26
2022/10/31 04:24:33;;;;;;;23.33;16.20;;;9.70;99.90;;;;;;5053918;28;20036;-26
2022/10/31 04:26:58;;;;;;;25.60;15.40;;;9.70;99.90;;;;;;5054108;28;20040;-26
2022/10/31 04:29:24;;;;;;;20.30;14.80;;;9.70;99.90;;;;;;5053877;28;20072;-26
2022/10/31 04:31:50;;;;;;;17.42;14.30;;;9.70;99.90;;;;;;5053961;28;20040;-26
2022/10/31 04:34:15;;;;;;;18.83;14.88;;;9.70;99.90;;;;;;5053613;28;20463;-26
2022/10/31 04:36:41;;;;;;;19.63;15.93;;;9.60;99.90;;;;;;5048173;28;20044;-26
2022/10/31 04:39:07;;;;;;;18.63;14.43;;;9.60;99.90;;;;;;5033662;28;20040;-27
2022/10/31 04:41:33;;;;;;;18.83;14.70;;;9.60;99.90;;;;;;5033601;28;20140;-26
2022/10/31 04:43:58;;;;;;;21.63;17.48;;;9.50;99.90;;;;;;5037991;28;20045;-27
2022/10/31 04:46:24;;;;;;;17.45;14.25;;;9.50;99.90;;;;;;5070982;28;20032;-26
2022/10/31 04:48:50;;;;;;;18.92;16.10;;;9.50;99.90;;;;;;5047949;28;20119;-26
2022/10/31 04:51:15;;;;;;;19.75;15.65;;;9.40;99.90;;;;;;5060086;28;20028;-26
2022/10/31 04:53:41;;;;;;;18.15;14.38;;;9.40;99.90;;;;;;5073649;28;20040;-27
2022/10/31 04:56:07;;;;;;;20.60;14.10;;;9.40;99.90;;;;;;5064612;28;20033;-27
2022/10/31 04:58:33;;;;;;;18.67;13.95;;;9.30;99.90;;;;;;5064788;28;20040;-26
2022/10/31 05:00:58;;;;;;;19.23;15.05;;;9.20;99.90;;;;;;5049305;28;20120;-26
2022/10/31 05:03:24;;;;;;;19.80;14.00;;;9.20;99.90;;;;;;5033502;28;20037;-26
2022/10/31 05:05:50;;;;;;;16.48;12.93;;;9.10;99.90;;;;;;5062415;28;20507;-27
2022/10/31 05:08:16;;;;;;;16.98;14.07;;;9.10;99.90;;;;;;5054903;28;20032;-25
2022/10/31 05:10:42;;;;;;;17.52;13.48;;;9.10;99.90;;;;;;5054021;28;20041;-26
2022/10/31 05:13:08;;;;;;;18.95;13.88;;;9.10;99.90;;;;;;5022662;28;20041;-26
2022/10/31 05:15:34;;;;;;;16.80;13.30;;;9.10;99.90;;;;;;5053419;28;20398;-26
2022/10/31 05:18:01;;;;;;;16.38;13.38;;;9.10;99.90;;;;;;5053918;28;20040;-26
2022/10/31 05:20:28;;;;;;;13.65;10.85;;;9.00;99.90;;;;;;5054529;28;20497;-26
2022/10/31 05:22:56;;;;;;;13.40;10.82;;;9.00;99.90;;;;;;5056931;28;20040;-26
2022/10/31 05:25:26;;;;;;;11.43;9.93;;;9.00;99.90;;;;;;5054789;28;20053;-26
2022/10/31 05:27:55;;;;;;;10.75;8.35;;;8.90;99.90;;;;;;5037369;28;20044;-28
2022/10/31 05:30:24;;;;;;;10.07;9.07;;;9.00;99.90;;;;;;5053376;28;20039;-27
2022/10/31 05:32:51;;;;;;;11.98;8.10;;;8.90;99.90;;;;;;5065623;28;20035;-27
2022/10/31 05:35:22;;;;;;;19.15;12.15;;;8.90;99.90;;;;;;5076749;28;20049;-27
2022/10/31 05:37:49;;;;;;;15.30;12.02;;;8.90;99.90;;;;;;5077188;28;20044;-27
2022/10/31 05:40:16;;;;;;;13.32;9.98;;;8.90;99.90;;;;;;5059249;28;20041;-27
2022/10/31 05:42:43;;;;;;;10.98;9.38;;;8.90;99.90;;;;;;5039431;28;20140;-27
2022/10/31 05:45:12;;;;;;;15.65;9.70;;;8.90;99.90;;;;;;5037994;28;20059;-27
2022/10/31 05:47:38;;;;;;;16.77;10.52;;;8.90;99.90;;;;;;5054885;28;20036;-27
2022/10/31 05:50:04;;;;;;;15.48;10.18;;;8.90;99.90;;;;;;5036491;28;20033;-27
2022/10/31 05:52:30;;;;;;;11.57;10.38;;;8.80;99.90;;;;;;5034267;28;20033;-27
2022/10/31 05:54:55;;;;;;;12.68;10.57;;;8.80;99.90;;;;;;5018786;28;20458;-27
2022/10/31 05:57:21;;;;;;;15.93;9.95;;;8.70;99.90;;;;;;5065430;28;20040;-26
2022/10/31 05:59:47;;;;;;;13.13;10.27;;;8.70;99.90;;;;;;5076630;28;20419;-26
2022/10/31 06:02:13;;;;;;;13.38;9.20;;;8.70;99.90;;;;;;5064274;28;20041;-26
2022/10/31 06:04:39;;;;;;;13.15;8.57;;;8.60;99.90;;;;;;5056144;28;20045;-27
2022/10/31 06:07:04;;;;;;;8.95;8.05;;;8.60;99.90;;;;;;5056271;28;20048;-27
2022/10/31 06:09:30;;;;;;;8.25;7.45;;;8.50;99.90;;;;;;5039422;28;20036;-27
2022/10/31 06:11:56;;;;;;;6.90;6.20;;;8.50;99.90;;;;;;5056373;28;20033;-27
2022/10/31 06:14:22;;;;;;;7.72;6.63;;;8.40;99.90;;;;;;5056414;28;20067;-26
2022/10/31 06:16:47;;;;;;;8.25;7.35;;;8.40;99.90;;;;;;5056473;28;20090;-30
2022/10/31 06:19:13;;;;;;;8.50;7.30;;;8.40;99.90;;;;;;5056458;28;20036;-26
2022/10/31 06:21:39;;;;;;;7.30;6.70;;;8.30;99.90;;;;;;5056080;28;20127;-27
2022/10/31 06:24:05;;;;;;;7.82;7.13;;;8.30;99.90;;;;;;5055934;28;20040;-26
2022/10/31 06:26:30;;;;;;;8.55;7.65;;;8.20;99.90;;;;;;5055990;28;20120;-27
2022/10/31 06:28:56;;;;;;;9.50;8.50;;;8.20;99.90;;;;;;5074263;28;20397;-27
2022/10/31 06:31:22;;;;;;;9.15;8.30;;;8.20;99.90;;;;;;5065354;28;20047;-27
2022/10/31 06:33:48;;;;;;;8.93;8.02;;;8.20;99.90;;;;;;5071520;28;20082;-27
2022/10/31 06:36:13;;;;;;;8.77;7.97;;;8.20;99.90;;;;;;5075542;28;20075;-26
2022/10/31 06:38:40;;;;;;;9.15;8.18;;;8.10;99.90;;;;;;5075473;28;20040;-27
2022/10/31 06:41:06;;;;;;;8.73;7.93;;;8.20;99.90;;;;;;5075971;28;20047;-27
2022/10/31 06:43:31;;;;;;;9.90;9.00;;;8.20;99.90;;;;;;5081369;28;20042;-27
2022/10/31 06:46:01;;;;;;;10.32;9.32;;;8.20;99.90;;;;;;5055775;28;20115;-27
2022/10/31 06:48:26;;;;;;;10.10;9.02;;;8.20;99.90;;;;;;5038647;28;20072;-26
2022/10/31 06:50:56;;;;;;;10.48;8.35;;;8.20;99.90;;;;;;5055421;28;20539;-27
2022/10/31 06:53:22;;;;;;;10.50;9.50;;;8.20;99.90;;;;;;5055491;28;20375;-26
2022/10/31 06:55:48;;;;;;;10.35;9.23;;;8.10;99.90;;;;;;5054951;28;20078;-26
2022/10/31 06:58:13;;;;;;;11.55;9.52;;;8.20;99.90;;;;;;5038922;28;20075;-26
2022/10/31 07:00:39;;;;;;;12.75;11.45;;;8.10;99.90;;;;;;5049890;28;20106;-27
2022/10/31 07:03:13;;;;;;;20.42;14.05;;;8.20;99.90;;;;;;5064818;28;20382;-29
2022/10/31 07:05:39;;;;;;;12.20;11.05;;;8.20;99.90;;;;;;5043855;28;20571;-29
2022/10/31 07:08:08;;;;;;;21.15;15.98;;;8.30;99.90;;;;;;5046136;28;20071;-30
2022/10/31 07:10:35;;;;;;;19.05;14.20;;;8.40;99.90;;;;;;5047917;28;20371;-30
2022/10/31 07:13:03;;;;;;;18.45;16.50;;;8.40;99.90;;;;;;5036521;28;20032;-30
2022/10/31 07:15:33;;;;;;;22.95;17.42;;;8.50;99.90;;;;;;5041126;28;20041;-30
2022/10/31 07:18:03;;;;;;;14.73;13.13;;;8.50;99.90;;;;;;5029765;28;20044;-30
2022/10/31 07:20:30;;;;;;;15.27;13.68;;;8.60;99.90;;;;;;5048423;28;20044;-30
2022/10/31 07:22:57;;;;;;;14.82;13.30;;;8.60;99.90;;;;;;5043153;28;20079;-30
2022/10/31 07:25:23;;;;;;;14.63;13.13;;;8.60;99.90;;;;;;5045311;28;20060;-30
2022/10/31 07:27:49;;;;;;;19.13;14.55;;;8.70;99.90;;;;;;5051352;28;20041;-29
2022/10/31 07:30:18;;;;;;;15.15;13.65;;;8.70;99.90;;;;;;5041098;28;20045;-29
2022/10/31 07:32:44;;;;;;;14.43;13.02;;;8.70;99.90;;;;;;5051521;28;20163;-29
2022/10/31 07:35:31;;;;;;;13.38;11.98;;;8.70;99.90;;;;;;5048407;28;20040;-30
2022/10/31 07:37:57;;;;;;;19.98;17.88;;;8.70;99.90;;;;;;5036382;28;20405;-30
2022/10/31 07:40:23;;;;;;;15.00;13.60;;;8.70;99.90;;;;;;5044922;28;20048;-30
2022/10/31 07:42:52;;;;;;;15.75;14.00;;;8.80;99.90;;;;;;5046328;28;20079;-30
2022/10/31 07:45:19;;;;;;;17.92;14.57;;;8.80;99.90;;;;;;5041296;28;20041;-29
2022/10/31 07:47:50;;;;;;;43.97;19.00;;;8.90;99.90;;;;;;5042453;28;20043;-30
2022/10/31 07:50:28;;;;;;;82.70;21.10;;;9.00;99.90;;;;;;5050081;28;20186;-30
2022/10/31 07:53:08;;;;;;;65.45;21.30;;;9.00;99.90;;;;;;5047638;28;20029;-30
2022/10/31 07:55:34;;;;;;;51.85;18.38;;;9.10;99.90;;;;;;5040422;28;20036;-30
2022/10/31 07:58:02;;;;;;;85.35;21.65;;;9.20;99.90;;;;;;5042507;28;20514;-30
2022/10/31 08:00:29;;;;;;;54.10;19.38;;;9.20;99.90;;;;;;5034634;28;20036;-30
2022/10/31 08:02:58;;;;;;;41.22;20.50;;;9.30;99.90;;;;;;5028218;28;20064;-30
2022/10/31 08:05:24;;;;;;;59.17;17.90;;;9.50;99.90;;;;;;5049013;28;20078;-30
2022/10/31 08:07:50;;;;;;;26.90;16.38;;;9.50;99.90;;;;;;5034108;28;20118;-29
2022/10/31 08:10:16;;;;;;;46.70;18.67;;;9.60;99.90;;;;;;5048024;28;20033;-30
2022/10/31 08:12:41;;;;;;;28.70;16.27;;;9.70;99.90;;;;;;5039852;28;20052;-30
2022/10/31 08:15:08;;;;;;;22.52;16.80;;;9.80;99.90;;;;;;5038730;28;20055;-30
2022/10/31 08:17:37;;;;;;;21.92;17.67;;;9.90;99.90;;;;;;5035129;28;20032;-30
2022/10/31 08:20:05;;;;;;;27.45;17.90;;;10.00;99.90;;;;;;5034196;28;20116;-30
2022/10/31 08:22:31;;;;;;;54.67;24.38;;;10.00;99.90;;;;;;5035207;28;20120;-30
2022/10/31 08:24:56;;;;;;;31.92;20.60;;;10.10;99.90;;;;;;5046220;28;20036;-30
2022/10/31 08:27:22;;;;;;;26.80;18.55;;;10.20;99.90;;;;;;5051986;28;20044;-30
2022/10/31 08:29:48;;;;;;;90.50;27.10;;;10.20;99.90;;;;;;5045962;28;20421;-30
2022/10/31 08:32:14;;;;;;;34.25;25.83;;;10.30;99.90;;;;;;5051424;28;20385;-30
2022/10/31 08:34:39;;;;;;;40.88;23.88;;;10.40;99.90;;;;;;5048358;28;20540;-30
2022/10/31 08:37:05;;;;;;;33.50;25.10;;;10.60;99.90;;;;;;5046557;28;20040;-30
2022/10/31 08:39:31;;;;;;;31.85;22.35;;;10.90;99.90;;;;;;5043985;28;20048;-30
2022/10/31 08:41:57;;;;;;;25.85;20.52;;;11.20;99.90;;;;;;5031657;28;20147;-30
2022/10/31 08:44:22;;;;;;;29.50;23.77;;;11.60;99.90;;;;;;5052200;28;20040;-30
2022/10/31 08:46:48;;;;;;;21.75;17.85;;;12.20;99.90;;;;;;5069000;28;20089;-30
2022/10/31 08:49:14;;;;;;;23.20;18.08;;;12.50;99.90;;;;;;5068951;28;20041;-30
2022/10/31 08:51:40;;;;;;;18.85;16.88;;;12.60;99.90;;;;;;5070758;28;20029;-30
2022/10/31 08:54:06;;;;;;;22.50;18.50;;;12.60;99.90;;;;;;5048963;28;20095;-30
2022/10/31 08:56:32;;;;;;;22.13;18.27;;;12.60;99.90;;;;;;5047927;28;20581;-30
2022/10/31 08:58:57;;;;;;;20.25;18.05;;;12.50;99.90;;;;;;5065895;28;20045;-31
2022/10/31 09:01:23;;;;;;;22.20;19.80;;;12.60;99.90;;;;;;5056558;28;20123;-30
2022/10/31 09:03:49;;;;;;;21.20;18.63;;;12.50;99.90;;;;;;5072796;28;20049;-30
2022/10/31 09:06:15;;;;;;;26.10;20.27;;;12.50;99.90;;;;;;5049549;28;20384;-30
2022/10/31 09:08:40;;;;;;;21.92;19.50;;;12.50;99.90;;;;;;5041020;28;20033;-30
2022/10/31 09:11:07;;;;;;;24.30;18.33;;;12.80;99.90;;;;;;5050163;28;20064;-30
2022/10/31 09:13:33;;;;;;;20.58;18.40;;;13.00;99.90;;;;;;5074446;28;20052;-30
2022/10/31 09:15:58;;;;;;;21.80;16.90;;;13.20;99.90;;;;;;5049740;28;20338;-31
2022/10/31 09:18:27;;;;;;;22.95;18.02;;;13.30;99.90;;;;;;5048449;28;20166;-30
2022/10/31 09:20:52;;;;;;;21.92;16.83;;;13.20;99.90;;;;;;5048183;28;20085;-30
2022/10/31 09:23:20;;;;;;;21.15;18.00;;;13.20;99.90;;;;;;5052261;28;20495;-30
2022/10/31 09:25:48;;;;;;;21.20;18.48;;;13.20;99.90;;;;;;5048198;28;20069;-30
2022/10/31 09:28:16;;;;;;;21.42;18.27;;;13.20;99.90;;;;;;5054409;28;20067;-30
2022/10/31 09:30:42;;;;;;;22.42;18.65;;;13.20;99.90;;;;;;5054226;28;20037;-30
2022/10/31 09:33:13;;;;;;;24.10;19.05;;;13.20;99.90;;;;;;5054635;28;20025;-31
2022/10/31 09:35:42;;;;;;;20.52;18.33;;;13.20;99.90;;;;;;5045647;28;20033;-31
2022/10/31 09:38:11;;;;;;;21.75;17.98;;;13.30;99.90;;;;;;5066274;28;20611;-29
2022/10/31 09:40:43;;;;;;;21.02;18.58;;;13.40;99.90;;;;;;5028687;28;20036;-30
2022/10/31 09:43:24;;;;;;;21.60;18.73;;;13.50;99.90;;;;;;5063469;28;20510;-29
2022/10/31 09:46:01;;;;;;;22.35;19.10;;;13.70;99.90;;;;;;5048160;28;20123;-29
2022/10/31 09:48:45;;;;;;;21.60;19.30;;;13.70;99.90;;;;;;5046410;28;20036;-29
2022/10/31 09:51:14;;;;;;;;;;;13.80;99.90;;;;;;5041591;28;20033;-29
2022/10/31 09:53:46;;;;;;;22.30;18.98;;;13.90;99.90;;;;;;5039585;28;20416;-29
2022/10/31 09:56:15;;;;;;;24.20;19.13;;;14.10;99.90;;;;;;5038710;28;20068;-30
2022/10/31 09:58:46;;;;;;;22.15;17.08;;;14.20;99.90;;;;;;5043321;28;20263;-30
2022/10/31 10:01:30;;;;;;;23.67;18.85;;;14.40;99.90;;;;;;5051513;28;20044;-30
2022/10/31 10:04:02;;;;;;;19.40;17.42;;;14.70;99.90;;;;;;5040404;28;20387;-30
2022/10/31 10:06:32;;;;;;;21.63;17.80;;;14.90;99.90;;;;;;5045671;28;20033;-30
2022/10/31 10:08:58;;;;;;;22.00;18.35;;;15.10;99.90;;;;;;5046673;28;20130;-30
2022/10/31 10:11:44;;;;;;;21.08;17.65;;;15.30;99.90;;;;;;5047156;28;20079;-30
2022/10/31 10:14:16;;;;;;;24.75;18.23;;;15.60;99.90;;;;;;5046910;28;20036;-30
2022/10/31 10:17:15;;;;;;;22.67;18.00;;;15.90;99.90;;;;;;5042941;28;20052;-30
2022/10/31 10:19:53;;;;;;;21.73;17.55;;;16.10;99.90;;;;;;5043788;28;20412;-31
2022/10/31 10:22:24;;;;;;;19.88;17.08;;;16.20;99.90;;;;;;5052850;28;20079;-31
2022/10/31 10:25:14;;;;;;;18.95;16.92;;;16.30;99.90;;;;;;5052841;28;20079;-30
2022/10/31 10:27:40;;;;;;;20.67;17.58;;;16.40;99.90;;;;;;5042210;28;20087;-30
2022/10/31 10:30:20;;;;;;;18.90;15.82;;;16.40;99.90;;;;;;5045441;28;20033;-31
2022/10/31 10:32:59;;;;;;;19.63;16.50;;;16.30;99.90;;;;;;5042617;28;20037;-30
2022/10/31 10:35:48;;;;;;;21.63;16.73;;;16.30;99.90;;;;;;5066661;28;20040;-30
2022/10/31 10:38:25;;;;;;;19.45;16.65;;;16.20;99.90;;;;;;5043100;28;20044;-30
2022/10/31 10:40:53;;;;;;;19.65;16.15;;;15.90;99.90;;;;;;5073432;28;20404;-30
2022/10/31 10:43:35;;;;;;;20.20;17.58;;;15.80;99.90;;;;;;5066361;28;20072;-30
2022/10/31 10:48:54;;;;;;;19.08;16.52;;;15.80;99.90;;;;;;5074078;28;20043;-30
2022/10/31 10:51:32;;;;;;;20.15;16.75;;;15.80;99.90;;;;;;5066577;28;20119;-31
2022/10/31 10:54:33;;;;;;;20.40;16.33;;;15.90;99.90;;;;;;5055276;28;20041;-31
2022/10/31 10:56:59;;;;;;;18.70;15.25;;;15.90;99.90;;;;;;5073090;28;20039;-31
2022/10/31 10:59:26;;;;;;;18.95;15.93;;;16.00;99.90;;;;;;5054792;28;20049;-31
2022/10/31 11:01:52;;;;;;;21.52;16.27;;;16.10;99.90;;;;;;5054531;28;20043;-31
2022/10/31 11:04:24;;;;;;;18.58;16.38;;;16.10;99.90;;;;;;5042739;28;20041;-31
2022/10/31 11:07:02;;;;;;;21.58;15.93;;;16.10;99.90;;;;;;5057656;28;20443;-30
2022/10/31 11:09:28;;;;;;;23.23;15.40;;;16.20;99.90;;;;;;5048245;28;20043;-30
2022/10/31 11:11:55;;;;;;;19.30;15.15;;;16.20;99.90;;;;;;5053147;28;20075;-30
2022/10/31 11:14:22;;;;;;;18.23;14.63;;;16.20;99.90;;;;;;5058777;28;20047;-30
2022/10/31 11:17:09;;;;;;;18.75;15.38;;;16.10;99.90;;;;;;5056191;28;20136;-30
2022/10/31 11:19:35;;;;;;;17.48;15.20;;;16.00;99.90;;;;;;5052062;28;20059;-30
2022/10/31 11:22:14;;;;;;;17.15;14.38;;;15.90;99.90;;;;;;5069289;28;20040;-30
2022/10/31 11:24:41;;;;;;;18.45;13.80;;;15.80;99.90;;;;;;5056053;28;20059;-29
2022/10/31 11:27:19;;;;;;;18.17;13.82;;;15.70;99.90;;;;;;5046929;28;20024;-30
2022/10/31 11:29:45;;;;;;;18.73;14.40;;;15.70;99.90;;;;;;5046213;28;20112;-30
2022/10/31 11:32:42;;;;;;;18.25;13.38;;;15.70;99.90;;;;;;5054207;28;20056;-30
2022/10/31 11:35:12;;;;;;;16.15;12.45;;;15.80;99.90;;;;;;5050452;28;20477;-28
2022/10/31 11:37:43;;;;;;;19.85;13.88;;;15.80;99.90;;;;;;5054744;28;20067;-28
2022/10/31 11:40:19;;;;;;;18.52;13.45;;;15.80;99.90;;;;;;5046543;28;20447;-31
2022/10/31 11:42:45;;;;;;;19.25;14.40;;;15.90;99.90;;;;;;5045283;28;20134;-29
2022/10/31 11:45:16;;;;;;;15.90;13.48;;;15.90;99.90;;;;;;5064914;28;20094;-29
2022/10/31 11:47:49;;;;;;;18.25;13.52;;;16.10;99.90;;;;;;5050769;28;20078;-29
2022/10/31 11:50:36;;;;;;;18.42;13.57;;;16.10;99.90;;;;;;5059050;28;20072;-29
2022/10/31 11:53:03;;;;;;;17.58;13.30;;;16.30;99.90;;;;;;5039796;28;20116;-28
2022/10/31 11:55:35;;;;;;;18.52;13.45;;;16.40;99.90;;;;;;5044807;28;20051;-30
2022/10/31 11:58:02;;;;;;;15.98;13.48;;;16.50;99.90;;;;;;5058676;28;20041;-29
2022/10/31 12:00:38;;;;;;;19.05;13.52;;;16.50;99.90;;;;;;5054604;28;20043;-30
2022/10/31 12:03:16;;;;;;;20.58;14.43;;;16.60;99.90;;;;;;5049018;28;20636;-28
2022/10/31 12:05:45;;;;;;;19.00;12.98;;;16.60;99.90;;;;;;5065980;28;20438;-28
2022/10/31 12:08:13;;;;;;;16.13;12.98;;;16.60;99.90;;;;;;5047516;28;20545;-29
2022/10/31 12:11:17;;;;;;;17.75;13.05;;;16.70;99.90;;;;;;5056074;28;20036;-27
2022/10/31 12:13:59;;;;;;;;;;;16.70;99.90;;;;;;5055782;28;20036;-28
2022/10/31 12:16:37;;;;;;;16.25;12.65;;;16.50;99.90;;;;;;5037861;28;19963;-27
2022/10/31 12:19:22;;;;;;;19.13;12.68;;;16.50;99.90;;;;;;5053690;28;20405;-27
2022/10/31 12:22:01;;;;;;;17.35;13.23;;;16.50;99.90;;;;;;5054057;28;20120;-27
2022/10/31 12:24:52;;;;;;;15.70;12.48;;;16.40;99.90;;;;;;5057044;28;20490;-34
2022/10/31 12:27:23;;;;;;;21.83;14.52;;;16.50;99.90;;;;;;5057270;28;20033;-27
2022/10/31 12:30:12;;;;;;;19.23;13.75;;;16.50;99.90;;;;;;5057055;28;20381;-28
2022/10/31 12:33:15;;;;;;;20.60;14.07;;;16.60;99.90;;;;;;5032307;28;20055;-28
2022/10/31 12:36:26;;;;;;;18.30;13.93;;;16.70;99.90;;;;;;5059916;28;20075;-28
2022/10/31 12:38:58;;;;;;;20.38;13.52;;;16.90;99.90;;;;;;4999672;28;20054;-31
2022/10/31 12:42:18;;;;;;;21.03;14.93;;;17.10;99.90;;;;;;5005457;28;20049;-31
2022/10/31 12:45:32;;;;;;;16.90;13.23;;;17.20;99.90;;;;;;4973950;28;20303;-31
2022/10/31 12:48:38;;;;;;;17.55;12.82;;;17.30;99.90;;;;;;5026809;28;20036;-31
2022/10/31 12:51:23;;;;;;;17.25;11.65;;;17.50;99.90;;;;;;5050426;28;20037;-31
2022/10/31 12:54:09;;;;;;;16.83;11.18;;;17.90;99.90;;;;;;5057005;28;20033;-31
2022/10/31 12:56:42;;;;;;;12.40;10.55;;;18.50;99.90;;;;;;5053515;28;20382;-31